createdAt,value
2024-02-29T00:02:24.638Z,2.15
2024-02-29T00:04:51.152Z,2.17
2024-02-29T00:07:17.919Z,2.27
2024-02-29T00:09:44.809Z,2.15
2024-02-29T00:12:11.634Z,2.22
2024-02-29T00:14:39.245Z,2.53
2024-02-29T00:17:07.311Z,2.24
2024-02-29T00:19:34.091Z,2.43
2024-02-29T00:22:00.965Z,2.59
2024-02-29T00:24:27.851Z,2.42
2024-02-29T00:26:54.526Z,2.25
2024-02-29T00:29:22.975Z,2.30
2024-02-29T00:31:49.951Z,2.15
2024-02-29T00:34:16.753Z,2.44
2024-02-29T00:36:43.748Z,2.74
2024-02-29T00:39:14.882Z,2.64
2024-02-29T00:41:42.818Z,2.74
2024-02-29T00:44:10.574Z,3.29
2024-02-29T00:46:41.410Z,2.90
2024-02-29T00:49:08.417Z,2.37
2024-02-29T00:51:35.509Z,2.17
2024-02-29T00:54:02.343Z,1.92
2024-02-29T00:56:29.095Z,2.07
2024-02-29T00:58:55.649Z,2.05
2024-02-29T01:01:22.276Z,2.04
2024-02-29T01:03:49.350Z,2.26
2024-02-29T01:06:17.147Z,2.41
2024-02-29T01:08:43.981Z,2.64
2024-02-29T01:11:10.641Z,2.61
2024-02-29T01:13:37.530Z,2.73
2024-02-29T01:16:04.382Z,2.45
2024-02-29T01:18:30.949Z,2.28
2024-02-29T01:20:57.766Z,2.19
2024-02-29T01:23:24.321Z,2.26
2024-02-29T01:25:51.061Z,2.35
2024-02-29T01:28:17.617Z,2.21
2024-02-29T01:30:44.687Z,2.15
2024-02-29T01:33:11.330Z,1.85
2024-02-29T01:35:39.260Z,1.65
2024-02-29T01:38:06.148Z,1.65
2024-02-29T01:40:33.161Z,1.63
2024-02-29T01:42:59.742Z,1.60
2024-02-29T01:45:26.539Z,1.67
2024-02-29T01:47:53.406Z,1.58
2024-02-29T01:50:20.657Z,1.56
2024-02-29T01:52:47.266Z,1.40
2024-02-29T01:55:14.179Z,1.33
2024-02-29T01:57:41.095Z,1.32
2024-02-29T02:00:10.191Z,1.41
2024-02-29T02:02:39.225Z,1.66
2024-02-29T02:05:09.569Z,1.56
2024-02-29T02:07:37.000Z,1.53
2024-02-29T02:10:04.697Z,1.57
2024-02-29T02:12:31.512Z,1.85
2024-02-29T02:14:58.524Z,1.86
2024-02-29T02:17:25.402Z,2.02
2024-02-29T02:19:53.620Z,2.17
2024-02-29T02:22:20.382Z,1.75
2024-02-29T02:24:47.133Z,2.31
2024-02-29T02:27:13.926Z,2.94
2024-02-29T02:29:40.761Z,3.32
2024-02-29T02:32:08.065Z,3.67
2024-02-29T02:34:34.833Z,3.32
2024-02-29T02:37:01.349Z,2.74
2024-02-29T02:39:28.204Z,2.14
2024-02-29T02:41:54.954Z,2.18
2024-02-29T02:44:21.663Z,2.05
2024-02-29T02:46:48.466Z,1.71
2024-02-29T02:49:16.983Z,1.60
2024-02-29T02:51:43.852Z,1.55
2024-02-29T02:54:10.319Z,1.59
2024-02-29T02:56:37.041Z,1.66
2024-02-29T02:59:03.807Z,1.47
2024-02-29T03:01:31.249Z,1.45
2024-02-29T03:03:57.873Z,1.43
2024-02-29T03:06:24.388Z,1.34
2024-02-29T03:08:50.911Z,1.50
2024-02-29T03:11:17.507Z,1.26
2024-02-29T03:13:44.337Z,1.53
2024-02-29T03:16:10.916Z,1.72
2024-02-29T03:18:37.730Z,1.62
2024-02-29T03:21:04.845Z,1.59
2024-02-29T03:23:31.614Z,1.37
2024-02-29T03:25:58.411Z,1.30
2024-02-29T03:28:24.997Z,1.15
2024-02-29T03:30:51.835Z,1.11
2024-02-29T03:33:18.352Z,1.06
2024-02-29T03:35:45.098Z,1.11
2024-02-29T03:38:12.734Z,1.11
2024-02-29T03:40:39.233Z,1.12
2024-02-29T03:43:05.804Z,1.14
2024-02-29T03:45:32.527Z,1.39
2024-02-29T03:47:59.396Z,1.35
2024-02-29T03:50:26.000Z,1.49
2024-02-29T03:52:52.756Z,1.54
2024-02-29T03:55:19.569Z,1.31
2024-02-29T03:57:46.361Z,1.16
2024-02-29T04:00:13.641Z,1.16
2024-02-29T04:02:41.173Z,1.68
2024-02-29T04:05:09.318Z,1.71
2024-02-29T04:07:43.482Z,1.59
2024-02-29T04:10:12.368Z,1.70
2024-02-29T04:12:39.076Z,1.36
2024-02-29T04:15:06.397Z,1.32
2024-02-29T04:17:33.619Z,1.20
2024-02-29T04:20:00.459Z,1.12
2024-02-29T04:22:27.256Z,1.11
2024-02-29T04:24:53.839Z,1.10
2024-02-29T04:27:20.653Z,1.06
2024-02-29T04:29:47.735Z,1.03
2024-02-29T04:32:14.340Z,1.06
2024-02-29T04:34:42.421Z,1.00
2024-02-29T04:37:09.414Z,1.02
2024-02-29T04:39:36.559Z,1.24
2024-02-29T04:42:04.847Z,1.24
2024-02-29T04:44:31.717Z,1.32
2024-02-29T04:46:58.235Z,1.58
2024-02-29T04:49:24.859Z,1.37
2024-02-29T04:51:51.866Z,1.17
2024-02-29T04:54:18.752Z,1.17
2024-02-29T04:56:45.563Z,1.20
2024-02-29T04:59:12.324Z,1.54
2024-02-29T05:01:39.258Z,1.67
2024-02-29T05:04:06.118Z,1.60
2024-02-29T05:06:33.096Z,1.49
2024-02-29T05:09:00.500Z,1.88
2024-02-29T05:11:27.337Z,1.68
2024-02-29T05:13:53.933Z,1.72
2024-02-29T05:16:21.400Z,1.79
2024-02-29T05:18:48.333Z,1.72
2024-02-29T05:21:14.983Z,1.60
2024-02-29T05:23:41.523Z,1.62
2024-02-29T05:26:09.314Z,1.77
2024-02-29T05:28:36.408Z,1.88
2024-02-29T05:31:03.195Z,1.92
2024-02-29T05:33:29.768Z,1.60
2024-02-29T05:35:56.835Z,1.63
2024-02-29T05:38:23.627Z,1.93
2024-02-29T05:40:50.416Z,2.46
2024-02-29T05:43:17.451Z,2.82
2024-02-29T05:45:44.416Z,2.98
2024-02-29T05:48:11.061Z,2.62
2024-02-29T05:50:37.782Z,3.08
2024-02-29T05:53:04.641Z,2.25
2024-02-29T05:55:31.462Z,2.03
2024-02-29T05:57:58.034Z,1.65
2024-02-29T06:00:24.821Z,1.73
2024-02-29T06:02:53.032Z,1.59
2024-02-29T06:05:21.093Z,1.84
2024-02-29T06:07:47.680Z,1.55
2024-02-29T06:10:14.296Z,1.40
2024-02-29T06:12:41.055Z,1.98
2024-02-29T06:15:10.889Z,1.65
2024-02-29T06:17:38.508Z,1.68
2024-02-29T06:20:11.706Z,1.37
2024-02-29T06:22:41.060Z,1.13
2024-02-29T06:25:10.152Z,1.27
2024-02-29T06:27:37.798Z,1.48
2024-02-29T06:30:06.972Z,1.52
2024-02-29T06:32:33.993Z,1.38
2024-02-29T06:35:00.880Z,1.41
2024-02-29T06:37:27.718Z,1.71
2024-02-29T06:39:57.399Z,2.84
2024-02-29T06:42:24.014Z,2.55
2024-02-29T06:44:52.508Z,2.06
2024-02-29T06:47:19.339Z,1.79
2024-02-29T06:49:45.874Z,1.60
2024-02-29T06:52:12.466Z,1.93
2024-02-29T06:54:39.319Z,1.64
2024-02-29T06:57:06.142Z,1.56
2024-02-29T06:59:32.679Z,1.54
2024-02-29T07:01:59.276Z,1.45
2024-02-29T07:04:26.282Z,1.51
2024-02-29T07:06:53.131Z,1.72
2024-02-29T07:09:19.907Z,1.78
2024-02-29T07:11:47.172Z,1.88
2024-02-29T07:14:14.387Z,1.94
2024-02-29T07:16:41.185Z,2.06
2024-02-29T07:19:08.019Z,2.05
2024-02-29T07:21:37.306Z,2.07
2024-02-29T07:24:04.195Z,2.17
2024-02-29T07:26:32.163Z,2.24
2024-02-29T07:28:59.834Z,2.30
2024-02-29T07:31:26.957Z,2.38
2024-02-29T07:33:55.006Z,2.46
2024-02-29T07:36:21.989Z,2.57
2024-02-29T07:38:48.484Z,2.63
2024-02-29T07:41:15.358Z,2.72
2024-02-29T07:43:42.356Z,2.87
2024-02-29T07:46:10.167Z,2.93
2024-02-29T07:48:37.058Z,3.03
2024-02-29T07:51:03.945Z,3.20
2024-02-29T07:53:30.565Z,3.28
2024-02-29T07:55:57.381Z,3.39
2024-02-29T07:58:24.327Z,3.42
2024-02-29T08:00:51.168Z,3.62
2024-02-29T08:03:17.870Z,3.75
2024-02-29T08:05:44.636Z,3.86
2024-02-29T08:08:12.829Z,3.93
2024-02-29T08:10:40.436Z,4.19
2024-02-29T08:13:07.227Z,4.44
2024-02-29T08:15:35.419Z,4.67
2024-02-29T08:18:02.618Z,4.87
2024-02-29T08:20:29.516Z,4.96
2024-02-29T08:22:58.342Z,5.18
2024-02-29T08:25:27.743Z,5.38
2024-02-29T08:27:54.946Z,5.58
2024-02-29T08:30:21.686Z,5.73
2024-02-29T08:32:49.873Z,5.85
2024-02-29T08:35:17.635Z,5.96
2024-02-29T08:37:45.134Z,6.17
2024-02-29T08:40:12.138Z,6.35
2024-02-29T08:42:39.235Z,6.45
2024-02-29T08:45:08.075Z,6.50
2024-02-29T08:47:34.693Z,6.74
2024-02-29T08:50:03.230Z,6.89
2024-02-29T08:52:32.393Z,6.94
2024-02-29T08:54:59.010Z,6.99
2024-02-29T08:57:25.553Z,7.14
2024-02-29T08:59:52.322Z,7.23
2024-02-29T09:02:22.000Z,7.44
2024-02-29T09:04:48.811Z,7.57
2024-02-29T09:07:15.414Z,7.56
2024-02-29T09:09:43.380Z,7.77
2024-02-29T09:12:11.210Z,7.85
2024-02-29T09:14:38.576Z,7.89
2024-02-29T09:17:07.544Z,7.89
2024-02-29T09:19:34.840Z,8.08
2024-02-29T09:22:01.572Z,8.15
2024-02-29T09:24:28.438Z,8.21
2024-02-29T09:26:55.084Z,8.24
2024-02-29T09:29:25.637Z,8.31
2024-02-29T09:31:53.465Z,8.50
2024-02-29T09:34:20.234Z,8.51
2024-02-29T09:36:47.985Z,8.50
2024-02-29T09:39:14.771Z,8.60
2024-02-29T09:41:59.676Z,8.75
2024-02-29T09:44:28.516Z,8.86
2024-02-29T09:46:54.999Z,8.87
2024-02-29T09:49:21.784Z,8.86
2024-02-29T09:51:48.914Z,8.83
2024-02-29T09:54:19.222Z,9.16
2024-02-29T09:56:47.314Z,9.36
2024-02-29T09:59:16.932Z,9.38
2024-02-29T10:01:46.196Z,9.20
2024-02-29T10:04:12.923Z,9.26
2024-02-29T10:06:39.778Z,9.37
2024-02-29T10:09:06.957Z,9.56
2024-02-29T10:11:33.594Z,9.68
2024-02-29T10:14:03.408Z,9.83
2024-02-29T10:16:32.523Z,9.97
2024-02-29T10:19:02.522Z,9.83
2024-02-29T10:21:34.408Z,9.85
2024-02-29T10:24:01.172Z,9.85
2024-02-29T10:26:27.982Z,10.00
2024-02-29T10:29:04.089Z,9.77
2024-02-29T10:31:30.923Z,9.94
2024-02-29T10:33:57.446Z,9.90
2024-02-29T10:36:24.406Z,9.94
2024-02-29T10:38:51.412Z,9.97
2024-02-29T10:41:20.740Z,9.94
2024-02-29T10:43:51.827Z,10.03
2024-02-29T10:46:20.971Z,10.04
2024-02-29T10:48:50.886Z,10.21
2024-02-29T10:51:55.387Z,10.20
2024-02-29T10:54:29.515Z,10.19
2024-02-29T10:56:57.559Z,10.28
2024-02-29T10:59:26.440Z,10.34
2024-02-29T11:01:58.693Z,10.54
2024-02-29T11:04:26.921Z,10.44
2024-02-29T11:06:54.172Z,10.44
2024-02-29T11:09:28.147Z,10.66
2024-02-29T11:12:15.245Z,10.81
2024-02-29T11:14:46.590Z,10.87
2024-02-29T11:17:16.637Z,10.98
2024-02-29T11:19:52.007Z,11.15
2024-02-29T11:22:32.858Z,11.14
2024-02-29T11:25:01.307Z,11.25
2024-02-29T11:27:34.959Z,11.31
2024-02-29T11:30:02.856Z,11.39
2024-02-29T11:32:33.530Z,11.31
2024-02-29T11:35:00.491Z,11.22
2024-02-29T11:37:32.710Z,11.49
2024-02-29T11:40:06.490Z,11.60
2024-02-29T11:42:33.676Z,11.38
2024-02-29T11:45:00.445Z,11.60
2024-02-29T11:47:28.627Z,11.56
2024-02-29T11:49:59.289Z,11.78
2024-02-29T11:52:26.062Z,12.05
2024-02-29T11:54:54.094Z,12.01
2024-02-29T11:57:23.241Z,11.95
2024-02-29T11:59:51.388Z,12.05
2024-02-29T12:02:19.782Z,12.17
2024-02-29T12:04:46.699Z,12.18
2024-02-29T12:07:13.489Z,12.08
2024-02-29T12:09:40.667Z,12.23
2024-02-29T12:12:07.757Z,12.39
2024-02-29T12:14:37.271Z,12.44
2024-02-29T12:17:06.953Z,12.61
2024-02-29T12:19:33.812Z,12.52
2024-02-29T12:22:00.668Z,12.61
2024-02-29T12:24:27.611Z,12.64
2024-02-29T12:26:54.275Z,12.90
2024-02-29T12:29:23.461Z,13.06
2024-02-29T12:31:50.831Z,13.08
2024-02-29T12:34:18.557Z,13.13
2024-02-29T12:36:48.230Z,13.20
2024-02-29T12:39:20.505Z,13.21
2024-02-29T12:41:47.323Z,13.50
2024-02-29T12:44:14.162Z,13.39
2024-02-29T12:46:41.614Z,13.17
2024-02-29T12:49:08.733Z,13.08
2024-02-29T12:51:35.489Z,13.01
2024-02-29T12:54:02.245Z,13.21
2024-02-29T12:56:28.782Z,13.33
2024-02-29T12:58:55.310Z,13.57
2024-02-29T13:01:22.702Z,13.48
2024-02-29T13:03:49.562Z,13.38
2024-02-29T13:06:16.555Z,13.35
2024-02-29T13:08:43.288Z,13.58
2024-02-29T13:11:09.989Z,13.64
2024-02-29T13:13:38.725Z,13.69
2024-02-29T13:16:05.871Z,13.73
2024-02-29T13:18:32.756Z,13.74
2024-02-29T13:21:01.314Z,13.75
2024-02-29T13:23:28.977Z,13.88
2024-02-29T13:25:55.979Z,13.82
2024-02-29T13:28:22.975Z,14.25
2024-02-29T13:30:49.914Z,14.26
2024-02-29T13:33:17.896Z,14.05
2024-02-29T13:35:44.845Z,14.03
2024-02-29T13:38:12.206Z,14.15
2024-02-29T13:40:39.026Z,14.38
2024-02-29T13:43:05.814Z,14.50
2024-02-29T13:45:38.791Z,14.81
2024-02-29T13:48:06.091Z,15.06
2024-02-29T13:50:33.271Z,15.30
2024-02-29T13:53:00.033Z,15.45
2024-02-29T13:55:26.900Z,15.69
2024-02-29T13:57:54.142Z,15.40
2024-02-29T14:00:21.184Z,15.68
2024-02-29T14:02:47.715Z,15.79
2024-02-29T14:05:15.542Z,15.83
2024-02-29T14:07:44.550Z,15.92
2024-02-29T14:10:12.320Z,15.25
2024-02-29T14:12:40.000Z,15.22
2024-02-29T14:15:07.250Z,15.30
2024-02-29T14:17:34.151Z,15.06
2024-02-29T14:20:00.962Z,14.57
2024-02-29T14:22:28.709Z,14.35
2024-02-29T14:24:55.467Z,13.84
2024-02-29T14:27:24.011Z,13.53
2024-02-29T14:29:50.880Z,13.29
2024-02-29T14:32:17.801Z,12.98
2024-02-29T14:34:45.347Z,12.88
2024-02-29T14:37:12.204Z,12.72
2024-02-29T14:39:39.115Z,12.62
2024-02-29T14:42:05.876Z,12.52
2024-02-29T14:44:32.447Z,12.43
2024-02-29T14:46:59.401Z,12.35
2024-02-29T14:49:26.795Z,12.22
2024-02-29T14:51:56.947Z,12.28
2024-02-29T14:54:23.755Z,12.21
2024-02-29T14:56:51.113Z,12.16
2024-02-29T14:59:18.602Z,12.15
2024-02-29T15:01:45.449Z,12.11
2024-02-29T15:04:13.333Z,12.05
2024-02-29T15:06:40.913Z,11.97
2024-02-29T15:09:07.823Z,11.86
2024-02-29T15:11:34.512Z,11.88
2024-02-29T15:14:01.305Z,11.80
2024-02-29T15:16:28.603Z,11.76
2024-02-29T15:18:55.549Z,11.75
2024-02-29T15:21:22.159Z,11.70
2024-02-29T15:23:48.790Z,11.65
2024-02-29T15:26:16.749Z,11.64
2024-02-29T15:28:49.165Z,11.59
2024-02-29T15:31:16.774Z,11.54
2024-02-29T15:33:44.130Z,11.49
2024-02-29T15:36:11.247Z,11.44
2024-02-29T15:38:38.118Z,11.45
2024-02-29T15:41:05.092Z,11.39
2024-02-29T15:43:32.371Z,11.35
2024-02-29T15:45:59.407Z,11.28
2024-02-29T15:48:26.195Z,11.21
2024-02-29T15:50:53.184Z,11.15
2024-02-29T15:53:20.392Z,11.19
2024-02-29T15:55:50.376Z,11.15
2024-02-29T15:58:17.526Z,11.33
2024-02-29T16:00:44.275Z,11.57
2024-02-29T16:03:11.156Z,11.53
2024-02-29T16:05:37.793Z,11.38
2024-02-29T16:08:04.643Z,11.21
2024-02-29T16:10:32.339Z,10.95
2024-02-29T16:12:59.521Z,10.80
2024-02-29T16:15:26.644Z,10.64
2024-02-29T16:17:53.699Z,10.47
2024-02-29T16:20:23.077Z,10.38
2024-02-29T16:22:50.573Z,10.24
2024-02-29T16:25:19.636Z,10.12
2024-02-29T16:27:47.080Z,10.08
2024-02-29T16:30:13.948Z,9.99
2024-02-29T16:32:43.643Z,9.90
2024-02-29T16:35:12.888Z,9.83
2024-02-29T16:37:39.914Z,9.79
2024-02-29T16:40:07.337Z,9.67
2024-02-29T16:42:34.144Z,9.61
2024-02-29T16:45:00.933Z,9.47
2024-02-29T16:47:27.907Z,9.40
2024-02-29T16:49:54.781Z,9.28
2024-02-29T16:52:21.782Z,9.24
2024-02-29T16:54:48.475Z,9.12
2024-02-29T16:57:15.308Z,8.94
2024-02-29T16:59:42.140Z,8.85
2024-02-29T17:02:09.143Z,8.77
2024-02-29T17:04:37.426Z,8.67
2024-02-29T17:07:05.995Z,8.51
2024-02-29T17:09:33.179Z,8.55
2024-02-29T17:12:00.643Z,8.47
2024-02-29T17:14:29.376Z,8.38
2024-02-29T17:16:56.269Z,8.30
2024-02-29T17:19:23.182Z,8.19
2024-02-29T17:21:50.124Z,8.13
2024-02-29T17:24:21.370Z,7.97
2024-02-29T17:26:48.224Z,7.94
2024-02-29T17:29:14.972Z,7.89
2024-02-29T17:31:41.441Z,7.87
2024-02-29T17:34:08.378Z,7.83
2024-02-29T17:36:35.934Z,7.75
2024-02-29T17:39:03.936Z,7.69
2024-02-29T17:41:30.779Z,7.65
2024-02-29T17:43:57.361Z,7.60
2024-02-29T17:46:24.197Z,7.59
2024-02-29T17:48:52.710Z,7.59
2024-02-29T17:51:19.473Z,7.58
2024-02-29T17:53:46.172Z,7.46
2024-02-29T17:56:13.608Z,7.43
2024-02-29T17:58:40.319Z,7.31
2024-02-29T18:01:06.843Z,7.34
2024-02-29T18:03:33.863Z,7.36
2024-02-29T18:06:00.583Z,7.27
2024-02-29T18:08:27.350Z,7.27
2024-02-29T18:10:53.939Z,7.20
2024-02-29T18:13:20.821Z,7.22
2024-02-29T18:15:47.483Z,7.11
2024-02-29T18:18:14.314Z,7.16
2024-02-29T18:20:41.125Z,7.11
2024-02-29T18:23:08.784Z,7.07
2024-02-29T18:25:35.395Z,7.04
2024-02-29T18:28:02.262Z,7.06
2024-02-29T18:30:28.852Z,6.99
2024-02-29T18:32:55.827Z,6.95
2024-02-29T18:35:22.655Z,6.90
2024-02-29T18:37:49.189Z,6.89
2024-02-29T18:40:16.143Z,6.82
2024-02-29T18:42:43.521Z,6.78
2024-02-29T18:45:10.698Z,6.71
2024-02-29T18:47:37.372Z,6.75
2024-02-29T18:50:05.894Z,6.65
2024-02-29T18:52:32.741Z,6.57
2024-02-29T18:54:59.613Z,6.48
2024-02-29T18:57:26.172Z,6.43
2024-02-29T18:59:52.941Z,6.39
2024-02-29T19:02:19.820Z,6.38
2024-02-29T19:04:52.195Z,6.32
2024-02-29T19:07:19.145Z,6.34
2024-02-29T19:09:46.304Z,6.32
2024-02-29T19:12:13.160Z,6.24
2024-02-29T19:14:40.424Z,6.21
2024-02-29T19:17:07.206Z,6.14
2024-02-29T19:19:33.669Z,6.07
2024-02-29T19:22:00.505Z,6.10
2024-02-29T19:24:27.308Z,6.09
2024-02-29T19:26:54.085Z,6.08
2024-02-29T19:29:20.879Z,6.10
2024-02-29T19:31:47.708Z,6.11
2024-02-29T19:34:14.464Z,6.05
2024-02-29T19:36:41.370Z,6.08
2024-02-29T19:39:07.962Z,6.02
2024-02-29T19:41:34.793Z,6.05
2024-02-29T19:44:01.526Z,5.94
2024-02-29T19:46:28.836Z,5.96
2024-02-29T19:48:55.794Z,5.93
2024-02-29T19:51:22.590Z,5.95
2024-02-29T19:53:49.120Z,5.98
2024-02-29T19:56:15.698Z,5.86
2024-02-29T19:58:42.636Z,5.83
2024-02-29T20:01:09.255Z,5.86
2024-02-29T20:03:35.793Z,5.78
2024-02-29T20:06:02.545Z,5.82
2024-02-29T20:08:29.363Z,5.82
2024-02-29T20:10:55.951Z,5.75
2024-02-29T20:13:22.959Z,5.71
2024-02-29T20:15:50.954Z,5.71
2024-02-29T20:18:19.034Z,5.63
2024-02-29T20:20:45.911Z,5.67
2024-02-29T20:23:13.157Z,5.63
2024-02-29T20:25:42.030Z,5.61
2024-02-29T20:28:09.177Z,5.61
2024-02-29T20:30:36.255Z,5.49
2024-02-29T20:33:02.880Z,5.49
2024-02-29T20:35:29.466Z,5.55
2024-02-29T20:37:56.246Z,5.53
2024-02-29T20:40:23.339Z,5.47
2024-02-29T20:42:50.142Z,5.48
2024-02-29T20:45:17.685Z,5.44
2024-02-29T20:47:45.036Z,5.43
2024-02-29T20:50:14.828Z,5.35
2024-02-29T20:52:43.674Z,5.35
2024-02-29T20:55:10.725Z,5.32
2024-02-29T20:57:37.996Z,5.40
2024-02-29T21:00:05.343Z,5.33
2024-02-29T21:02:32.157Z,5.40
2024-02-29T21:05:05.287Z,5.37
2024-02-29T21:07:33.670Z,5.52
2024-02-29T21:10:01.073Z,5.51
2024-02-29T21:12:27.883Z,5.32
2024-02-29T21:14:54.624Z,5.18
2024-02-29T21:17:22.491Z,5.14
2024-02-29T21:19:49.121Z,5.06
2024-02-29T21:22:16.293Z,4.99
2024-02-29T21:24:42.866Z,4.93
2024-02-29T21:27:09.911Z,4.89
2024-02-29T21:29:36.538Z,4.81
2024-02-29T21:32:04.900Z,4.80
2024-02-29T21:34:31.689Z,4.88
2024-02-29T21:36:58.837Z,5.17
2024-02-29T21:39:32.403Z,5.28
2024-02-29T21:42:04.078Z,5.63
2024-02-29T21:44:30.873Z,5.62
2024-02-29T21:46:57.615Z,5.56
2024-02-29T21:49:24.497Z,5.76
2024-02-29T21:51:52.540Z,5.78
2024-02-29T21:54:20.962Z,5.76
2024-02-29T21:56:47.520Z,5.70
2024-02-29T21:59:14.326Z,5.74
2024-02-29T22:01:40.992Z,5.22
2024-02-29T22:04:07.849Z,4.97
2024-02-29T22:06:34.648Z,4.99
2024-02-29T22:09:01.172Z,4.83
2024-02-29T22:11:28.428Z,4.66
2024-02-29T22:13:55.236Z,4.65
2024-02-29T22:16:22.588Z,4.66
2024-02-29T22:18:49.423Z,4.58
2024-02-29T22:21:26.352Z,4.74
2024-02-29T22:23:52.862Z,4.48
2024-02-29T22:26:19.363Z,4.42
2024-02-29T22:28:45.835Z,4.26
2024-02-29T22:31:12.615Z,4.38
2024-02-29T22:33:39.477Z,4.32
2024-02-29T22:36:06.305Z,4.34
2024-02-29T22:38:32.901Z,4.43
2024-02-29T22:41:01.631Z,4.22
2024-02-29T22:43:28.501Z,4.38
2024-02-29T22:45:55.384Z,4.26
2024-02-29T22:48:22.180Z,4.16
2024-02-29T22:50:49.198Z,4.11
2024-02-29T22:53:15.803Z,4.02
2024-02-29T22:55:42.511Z,4.05
2024-02-29T22:58:09.045Z,4.29
2024-02-29T23:00:37.781Z,4.54
2024-02-29T23:03:04.615Z,5.00
2024-02-29T23:05:31.256Z,5.12
2024-02-29T23:07:58.357Z,5.16
2024-02-29T23:10:27.340Z,4.94
2024-02-29T23:12:54.447Z,5.21
2024-02-29T23:15:21.194Z,5.51
2024-02-29T23:17:51.897Z,5.17
2024-02-29T23:20:18.898Z,4.67
2024-02-29T23:22:46.366Z,4.54
2024-02-29T23:25:13.499Z,4.18
2024-02-29T23:27:40.353Z,4.03
2024-02-29T23:30:08.709Z,3.90
2024-02-29T23:32:36.610Z,3.90
2024-02-29T23:35:03.827Z,3.81
2024-02-29T23:37:32.046Z,3.65
2024-02-29T23:39:59.148Z,3.88
2024-02-29T23:42:25.889Z,4.16
2024-02-29T23:44:52.465Z,4.21
2024-02-29T23:47:19.308Z,3.94
2024-02-29T23:49:46.047Z,4.09
2024-02-29T23:52:12.990Z,4.30
2024-02-29T23:54:40.642Z,4.10
2024-02-29T23:57:08.182Z,4.60
2024-02-29T23:59:34.927Z,4.95
